Sunday, December 21, 2014
20:07 UTC
  |  Log In   |  Register Free
Airport Search:

Alpena County Regional Airport
(KAPN)

FAA data valid effective November 13, 2014 - January 08, 2015 (unless otherwise noted).

 
 
 
 
 
 
 
 
 
 
 
 
 
 

Current Aviation Weather for Alpena County Regional Airport (KAPN)

The most recent METAR observation for KAPN was updated at: 2111
METAR Summary (Translated METAR)
KAPN
182054Z AUTO 34007KT 10SM OVC016 M04/M08 A3019 RMK AO2 SLP236 T10441078 53001
KPZQ
182114Z AUTO 34004KT 10SM CLR M04/M08 A3022 RMK AO2 T10451077
(22.5 nm NW from KAPN)
KOSC
182114Z AUTO 36007KT 10SM OVC016 M03/M06 A3018 RMK AO2 T10381064
(38.3 nm SE from KAPN)
TAF Summary (Translated TAF)
KAPN
211740Z 2118/2218 19006KT P6SM OVC035 FM212000 18005KT P6SM BKN028 FM220200 18007KT P6SM SCT050 OVC150 FM221500 14012G18KT P6SM SCT050 OVC150
  Airport Weather Conditions for KAPN

 Current Weather at APN
30° F
Overcast
South winds at 8.1 mph
APN NOAA Radar

Pressure: 30.20 in
Humidity: 82%
Wind: South at 8.1 MPH (7 KT)
Dew Point: 25.0°F
Visibility: 9.00 mi


Airport Weather Forecast for KAPN

Translated METAR and TAF for KAPN
Translated METAR for KAPN (2008 UTC 21 December 2014)
found at http://aviationweather.gov/adds/metars/
 
METAR text: KAPN 212001Z AUTO 16005KT 8SM BKN014 OVC036 M01/M03 A3019 RMK AO2 T10061028
Conditions at: KAPN (ALPENA , MI, US) observed 2001 UTC 21 December 2014
Temperature: -0.6°C (31°F)
Dewpoint: -2.8°C (27°F) [RH = 85%]
Pressure (altimeter): 30.19 inches Hg (1022.4 mb)
Winds: from the SSE (160 degrees) at 6 MPH (5 knots; 2.6 m/s)
Visibility: 8 miles (13 km)
Ceiling: 1400 feet AGL
Clouds: broken clouds at 1400 feet AGL
overcast cloud deck at 3600 feet AGL
Weather: automated observation with no human augmentation;
there may or may not be significant weather present at this time
Translated TAF for KAPN
Forecast for: KAPN (ALPENA , MI, US)
TAF Text: KAPN 212004Z 2120/2218 16006KT P6SM OVC014
Forecast period: 2000 UTC 21 December 2014 to 0200 UTC 22 December 2014
Forecast type: FROM: standard forecast or significant change
Winds: from the SSE (160 degrees) at 7 MPH (6 knots; 3.1 m/s)
Visibility: 6 or more miles (10+ km)
Ceiling: 1400 feet AGL
Clouds: overcast cloud deck at 1400 feet AGL
Weather: no significant weather forecast for this period
TAF Text: FM220200 16006KT P6SM SCT050 OVC150
Forecast period: 0200 to 1500 UTC 22 December 2014
Forecast type: FROM: standard forecast or significant change
Winds: from the SSE (160 degrees) at 7 MPH (6 knots; 3.1 m/s)
Visibility: 6 or more miles (10+ km)
Ceiling: 15000 feet AGL
Clouds: scattered clouds at 5000 feet AGL
overcast cloud deck at 15000 feet AGL
Weather: no significant weather forecast for this period
TAF Text: FM221500 14012G18KT P6SM SCT050 OVC150
Forecast period: 1500 to 1800 UTC 22 December 2014
Forecast type: FROM: standard forecast or significant change
Winds: from the SE (140 degrees) at 14 MPH (12 knots; 6.2 m/s)
gusting to 21 MPH (18 knots; 9.4 m/s)
Visibility: 6 or more miles (10+ km)
Ceiling: 15000 feet AGL
Clouds: scattered clouds at 5000 feet AGL
overcast cloud deck at 15000 feet AGL
Weather: no significant weather forecast for this period

Find All Airport Services Find A Hotel Find A Rental Car Find A Golf Course Find A Restaurant $100 Hamburger



FBO's on the Field
FBO Company Facility Photos Services Transportation Aviation Fuel Prices: Prices include tax
Catering Weather Repair Courtesy Rental Type 100LL JetA JetA+ MOGAS 8087
 
Aviation Express Inc.

Currently rated 1.2 by 1 person
FS:Shell
Last Updated: Nov-19
Login to update fuel prices
SS:
Contact Aviation Express Inc.More FBO Information
 
Aviation North

This FBO has not yet been rated
FS:Avfuel
Last Updated: Dec-11
Login to update fuel prices
SS:
Contact Aviation NorthMore FBO Information
 
Add another FBO Facility Photos Catering Weather Repair Courtesy Rental Type 100LL JetA JetA+ MOGAS 8087
Services Transportation Aviation Fuel Prices: Prices include tax


model-print
model-print
model-print
model-print